This is the latest recevied weather packets stored in our database for station/object WG5EEK. If no packets are shown the sender has not sent any weather packets the latest 10 day(s).
| Time | Temp. | Humidity | Pressure | Rain* | Wind** | Luminosity | Snow |
|---|---|---|---|---|---|---|---|
| 1777395962 | 22.22° C | 92% | 973.9 hPa | - | - | - | - |
| 1777394882 | 22.22° C | 92% | 974.3 hPa | - | - | - | - |
| 1777393802 | 22.22° C | 91% | 974.5 hPa | - | - | - | - |
| 1777392747 | 21.67° C | 92% | 974.9 hPa | - | - | - | - |
| 1777392362 | 21.11° C | 90% | 975.6 hPa | - | - | - | - |
| 1777388401 | 21.11° C | 81% | 975.3 hPa | - | - | - | - |
| 1777383721 | 21.11° C | 80% | 976.9 hPa | - | - | - | - |
| 1777383362 | 20.56° C | 80% | 977.1 hPa | - | - | - | - |
| 1777378682 | 20° C | 79% | 978.5 hPa | - | - | - | - |
| 1777377961 | 20° C | 79% | 978.6 hPa | - | - | - | - |
| 1777377602 | 20° C | 79% | 978.5 hPa | - | - | - | - |
| 1777373282 | 20° C | 77% | 978.3 hPa | - | - | - | - |
| 1777368962 | 20.56° C | 76% | 977.4 hPa | - | - | - | - |
| 1777368602 | 20.56° C | 76% | 977.2 hPa | - | - | - | - |
| 1777367882 | 20.56° C | 75% | 977.2 hPa | - | - | - | - |
| 1777366082 | 20.56° C | 74% | 976.7 hPa | - | - | - | - |
| 1777365362 | 21.11° C | 74% | 976.4 hPa | - | - | - | - |
| 1777363921 | 21.11° C | 76% | 976.3 hPa | - | - | - | - |
| 1777362842 | 21.67° C | 77% | 976.1 hPa | - | - | - | - |
| 1777359962 | 21.67° C | 81% | 975.5 hPa | - | - | - | - |
| 1777359603 | 21.67° C | 81% | 975.6 hPa | - | - | - | - |
| 1777358547 | 21.67° C | 81% | 975.8 hPa | - | - | - | - |
| 1777354922 | 22.78° C | 80% | 973.9 hPa | - | - | - | - |
| 1777353842 | 22.78° C | 80% | 972.8 hPa | - | - | - | - |
| 1777353482 | 22.78° C | 80% | 972.8 hPa | - | - | - | - |
* Rain since midnight (hover to see other rain measurements)
** Current wind speed in m/s (hover to see current wind gust speed)